Time;durP1;ratioP1;P1;durP2;ratioP2;P2;SDS_P1;SDS_P2;PMS_P1;PMS_P2;Temp;Humidity;BMP_temperature;BMP_pressure;BME280_temperature;BME280_humidity;BME280_pressure;Samples;Min_cycle;Max_cycle;Signal;HPM_P1;HPM_P2
2020/12/23 00:01:28;;;;;;;0.95;0.40;;;;;;;11.43;71.46;95548.06;4971095;28;20108;-74
2020/12/23 00:03:55;;;;;;;0.30;0.30;;;;;;;11.88;70.58;95567.63;4984552;28;20129;-75
2020/12/23 00:06:21;;;;;;;0.63;0.32;;;;;;;11.78;70.71;95583.00;4988559;28;20031;-74
2020/12/23 00:08:46;;;;;;;1.05;0.43;;;;;;;11.89;70.62;95587.06;4984327;28;20031;-76
2020/12/23 00:11:15;;;;;;;0.90;0.30;;;;;;;11.93;70.13;95585.38;4971795;28;20065;-75
2020/12/23 00:13:40;;;;;;;0.90;0.35;;;;;;;11.89;69.64;95590.50;4971079;28;20050;-75
2020/12/23 00:16:06;;;;;;;0.47;0.30;;;;;;;11.68;70.60;95578.69;4986273;28;20400;-73
2020/12/23 00:18:32;;;;;;;0.35;0.35;;;;;;;11.57;70.86;95566.69;4989679;28;20105;-74
2020/12/23 00:20:57;;;;;;;0.40;0.30;;;;;;;11.69;70.80;95559.72;4990186;28;20490;-76
2020/12/23 00:23:22;;;;;;;0.38;0.30;;;;;;;11.73;70.40;95570.59;4988463;28;20030;-74
2020/12/23 00:25:47;;;;;;;0.70;0.30;;;;;;;11.77;69.69;95563.53;4971211;28;20030;-74
2020/12/23 00:28:13;;;;;;;0.30;0.30;;;;;;;11.66;70.30;95570.97;4985128;28;20049;-76
2020/12/23 00:30:41;;;;;;;0.30;0.30;;;;;;;11.74;69.77;95569.50;4978642;28;20073;-74
2020/12/23 00:33:06;;;;;;;0.30;0.30;;;;;;;11.82;69.09;95560.00;4970162;28;20300;-74
2020/12/23 00:35:31;;;;;;;0.35;0.25;;;;;;;11.71;69.85;95562.09;4971676;28;20042;-74
2020/12/23 00:37:57;;;;;;;0.70;0.30;;;;;;;11.58;69.52;95547.72;4991691;28;20082;-74
2020/12/23 00:40:22;;;;;;;0.30;0.30;;;;;;;11.97;68.55;95563.13;4970815;28;20452;-74
2020/12/23 00:42:47;;;;;;;0.43;0.38;;;;;;;11.96;68.75;95550.09;4970272;28;20126;-75
2020/12/23 00:45:13;;;;;;;0.52;0.28;;;;;;;11.93;68.58;95556.84;4969120;28;20117;-75
2020/12/23 00:47:38;;;;;;;0.40;0.38;;;;;;;11.79;68.77;95552.59;4973485;28;20075;-75
2020/12/23 00:50:04;;;;;;;0.22;0.22;;;;;;;12.03;68.02;95557.66;4991507;28;20688;-75
2020/12/23 00:52:29;;;;;;;0.40;0.40;;;;;;;11.90;68.38;95554.75;4988082;28;20081;-74
2020/12/23 00:54:54;;;;;;;0.50;0.40;;;;;;;11.92;67.99;95547.22;4988463;28;20439;-75
2020/12/23 00:57:19;;;;;;;0.30;0.30;;;;;;;12.05;67.57;95558.16;4979306;28;20035;-75
2020/12/23 00:59:45;;;;;;;0.40;0.40;;;;;;;12.14;67.49;95559.03;4970349;28;20035;-75
2020/12/23 01:02:10;;;;;;;0.77;0.38;;;;;;;11.95;68.18;95565.31;4971863;28;20042;-75
2020/12/23 01:04:35;;;;;;;0.35;0.20;;;;;;;12.03;67.53;95571.81;4989275;28;20066;-74
2020/12/23 01:07:01;;;;;;;0.20;0.20;;;;;;;12.04;67.55;95562.72;4989651;28;20130;-74
2020/12/23 01:09:26;;;;;;;0.20;0.20;;;;;;;11.90;67.82;95545.97;4989390;28;20488;-73
2020/12/23 01:11:52;;;;;;;0.30;0.30;;;;;;;12.00;67.67;95569.75;4989495;28;20041;-74
2020/12/23 01:14:19;;;;;;;0.80;0.30;;;;;;;11.80;67.95;95554.19;4988528;28;20152;-75
2020/12/23 01:16:44;;;;;;;0.20;0.20;;;;;;;11.90;67.71;95549.44;4990438;28;20113;-74
2020/12/23 01:19:09;;;;;;;0.38;0.28;;;;;;;12.01;67.26;95557.19;4989269;28;20039;-75
2020/12/23 01:21:35;;;;;;;0.35;0.28;;;;;;;12.00;67.50;95559.06;4989631;28;20093;-76
2020/12/23 01:24:00;;;;;;;0.70;0.30;;;;;;;11.85;68.09;95554.88;4989315;28;20030;-74
2020/12/23 01:26:25;;;;;;;0.68;0.40;;;;;;;11.95;67.18;95543.19;4990287;28;20034;-75
2020/12/23 01:28:51;;;;;;;0.30;0.30;;;;;;;11.97;67.16;95559.66;4995262;28;20022;-76
2020/12/23 01:31:16;;;;;;;0.68;0.20;;;;;;;11.95;67.51;95551.19;4991816;28;20102;-75
2020/12/23 01:33:41;;;;;;;0.40;0.40;;;;;;;11.70;67.96;95541.88;4991513;28;20470;-73
2020/12/23 01:36:08;;;;;;;1.15;0.20;;;;;;;11.66;67.92;95552.31;4991934;28;20105;-74
2020/12/23 01:38:33;;;;;;;0.30;0.20;;;;;;;11.76;67.65;95543.31;4988520;28;20137;-74
2020/12/23 01:41:00;;;;;;;0.30;0.30;;;;;;;11.70;68.52;95555.19;4975632;28;20114;-75
2020/12/23 01:43:26;;;;;;;2.22;0.30;;;;;;;11.78;67.62;95535.03;4973610;28;20038;-74
2020/12/23 01:45:51;;;;;;;0.40;0.35;;;;;;;11.53;68.47;95534.50;4986942;28;20034;-77
2020/12/23 01:48:20;;;;;;;0.17;0.17;;;;;;;11.57;67.61;95497.41;4992962;28;20038;-75
2020/12/23 01:50:46;;;;;;;0.22;0.20;;;;;;;11.83;67.57;95549.06;4988761;28;20035;-75
2020/12/23 01:53:12;;;;;;;0.22;0.22;;;;;;;11.68;67.46;95536.84;4975672;28;20035;-74
2020/12/23 01:55:37;;;;;;;0.30;0.30;;;;;;;11.72;67.45;95550.38;4993153;28;20121;-76
2020/12/23 01:58:02;;;;;;;0.20;0.20;;;;;;;11.57;68.12;95543.50;4992623;28;20496;-76
2020/12/23 02:00:28;;;;;;;1.23;0.50;;;;;;;11.28;68.52;95519.84;4991546;28;20403;-74
2020/12/23 02:02:58;;;;;;;0.30;0.30;;;;;;;11.61;68.22;95548.97;4987118;28;20038;-75
2020/12/23 02:05:23;;;;;;;1.45;0.30;;;;;;;11.70;67.69;95555.19;4974799;28;20027;-73
2020/12/23 02:07:49;;;;;;;0.13;0.13;;;;;;;11.43;68.88;95540.06;4993445;28;20025;-76
2020/12/23 02:10:14;;;;;;;0.22;0.22;;;;;;;11.59;68.14;95551.19;4974627;28;20097;-75
2020/12/23 02:12:40;;;;;;;0.98;0.30;;;;;;;11.31;68.30;95515.78;4984767;28;20084;-74
2020/12/23 02:15:11;;;;;;;0.20;0.20;;;;;;;11.59;68.20;95549.28;4992627;28;20073;-75
2020/12/23 02:17:36;;;;;;;0.10;0.10;;;;;;;11.62;68.11;95540.72;4987929;28;20038;-75
2020/12/23 02:20:08;;;;;;;0.40;0.17;;;;;;;11.71;67.86;95541.56;4973694;28;20073;-74
2020/12/23 02:22:34;;;;;;;;;;;;;;;11.75;67.42;95541.75;4989231;28;20057;-74
2020/12/23 02:25:00;;;;;;;0.20;0.20;;;;;;;11.59;67.95;95538.63;4992684;28;19918;-73
2020/12/23 02:27:25;;;;;;;0.30;0.30;;;;;;;11.56;67.49;95541.09;4982953;28;20038;-75
2020/12/23 02:29:53;;;;;;;0.32;0.32;;;;;;;11.64;67.85;95537.75;4972648;28;20540;-75
2020/12/23 02:32:20;;;;;;;0.60;0.30;;;;;;;11.57;68.08;95540.03;4973605;28;20023;-75
2020/12/23 02:34:47;;;;;;;0.30;0.30;;;;;;;11.50;67.80;95531.66;4993807;28;20117;-76
2020/12/23 02:37:13;;;;;;;0.22;0.20;;;;;;;11.49;67.87;95538.84;4974833;28;20149;-76
2020/12/23 02:39:40;;;;;;;1.38;0.30;;;;;;;11.34;67.93;95523.97;4982178;28;20093;-76
2020/12/23 02:42:07;;;;;;;0.22;0.22;;;;;;;11.43;67.88;95535.50;4992080;28;20117;-75
2020/12/23 02:44:32;;;;;;;0.43;0.30;;;;;;;11.37;67.36;95510.09;4990738;28;20058;-77
2020/12/23 02:47:07;;;;;;;0.30;0.20;;;;;;;11.42;67.90;95517.97;4994079;28;20027;-77
2020/12/23 02:49:32;;;;;;;1.00;0.40;;;;;;;11.36;68.32;95521.00;4991966;28;20034;-75
2020/12/23 02:51:57;;;;;;;0.52;0.28;;;;;;;11.35;67.98;95508.78;4990627;28;20037;-75
2020/12/23 02:54:23;;;;;;;0.40;0.20;;;;;;;11.30;68.49;95507.03;4992007;28;20488;-74
2020/12/23 02:56:48;;;;;;;0.30;0.30;;;;;;;11.17;68.05;95479.34;4990978;28;20179;-77
2020/12/23 02:59:14;;;;;;;1.30;0.30;;;;;;;11.43;67.60;95510.75;4991704;28;20045;-76
2020/12/23 03:01:40;;;;;;;0.20;0.20;;;;;;;11.55;67.58;95515.56;4994031;28;20037;-75
2020/12/23 03:04:06;;;;;;;0.50;0.22;;;;;;;11.68;67.05;95523.50;4990622;28;20045;-77
2020/12/23 03:06:32;;;;;;;0.77;0.25;;;;;;;11.72;67.03;95505.06;4991250;28;20043;-76
2020/12/23 03:08:58;;;;;;;0.25;0.20;;;;;;;11.78;66.36;95503.84;4988188;28;20488;-76
2020/12/23 03:11:23;;;;;;;0.20;0.20;;;;;;;11.85;66.67;95503.44;4988851;28;20038;-75
2020/12/23 03:13:49;;;;;;;0.45;0.30;;;;;;;11.97;65.77;95490.34;4974325;28;20023;-76
2020/12/23 03:16:14;;;;;;;1.55;0.30;;;;;;;12.07;65.47;95495.44;4988333;28;20482;-77
2020/12/23 03:18:40;;;;;;;0.20;0.13;;;;;;;12.13;65.60;95472.91;4977614;28;20039;-75
2020/12/23 03:21:09;;;;;;;0.30;0.10;;;;;;;12.26;65.04;95476.56;4978122;28;20026;-74
2020/12/23 03:23:35;;;;;;;0.20;0.17;;;;;;;12.41;64.91;95491.41;4990132;28;20043;-75
2020/12/23 03:26:01;;;;;;;0.30;0.30;;;;;;;12.49;64.63;95491.44;4992392;28;20053;-74
2020/12/23 03:28:26;;;;;;;0.68;0.20;;;;;;;12.32;64.68;95442.56;4971631;28;20030;-74
2020/12/23 03:30:51;;;;;;;0.20;0.20;;;;;;;12.52;64.21;95468.69;4983103;28;20037;-75
2020/12/23 03:33:18;;;;;;;0.38;0.30;;;;;;;12.52;64.06;95466.03;4989718;28;20572;-74
2020/12/23 03:35:43;;;;;;;0.30;0.30;;;;;;;12.57;63.84;95471.22;4990215;28;20035;-76
2020/12/23 03:38:08;;;;;;;0.50;0.25;;;;;;;12.56;63.81;95458.97;4991899;28;20034;-74
2020/12/23 03:40:34;;;;;;;0.40;0.22;;;;;;;12.56;63.60;95453.66;4958446;28;20035;-76
2020/12/23 03:42:59;;;;;;;0.55;0.25;;;;;;;12.59;63.55;95465.56;4983363;28;20036;-75
2020/12/23 03:45:24;;;;;;;4.93;0.75;;;;;;;12.58;63.64;95461.34;4987599;28;20469;-76
2020/12/23 03:47:50;;;;;;;0.10;0.10;;;;;;;12.62;63.25;95456.97;4983364;28;20480;-75
2020/12/23 03:50:16;;;;;;;0.30;0.28;;;;;;;12.57;63.28;95449.88;4969524;28;20495;-75
2020/12/23 03:52:41;;;;;;;0.68;0.20;;;;;;;12.62;63.14;95459.63;4990679;28;20472;-75
2020/12/23 03:55:08;;;;;;;0.73;0.20;;;;;;;12.72;63.42;95468.13;4989682;28;20279;-76
2020/12/23 03:57:33;;;;;;;1.40;0.50;;;;;;;12.66;63.16;95458.72;4978592;28;20038;-75
2020/12/23 03:59:58;;;;;;;0.45;0.20;;;;;;;12.65;63.05;95461.69;4970229;28;20041;-75
2020/12/23 04:02:24;;;;;;;0.40;0.40;;;;;;;12.67;62.93;95457.59;4970449;28;20124;-73
2020/12/23 04:04:49;;;;;;;0.35;0.30;;;;;;;12.56;62.91;95440.31;4991745;28;20591;-75
2020/12/23 04:07:14;;;;;;;0.30;0.30;;;;;;;12.57;63.11;95457.09;4989543;28;20076;-76
2020/12/23 04:09:40;;;;;;;0.60;0.40;;;;;;;12.70;63.49;95464.22;4987764;28;20057;-77
2020/12/23 04:12:05;;;;;;;0.55;0.32;;;;;;;12.63;63.05;95453.19;4988493;28;20038;-74
2020/12/23 04:14:30;;;;;;;0.28;0.20;;;;;;;12.68;62.82;95455.72;4987058;28;20041;-76
2020/12/23 04:16:56;;;;;;;0.22;0.10;;;;;;;12.60;62.99;95435.16;4952837;28;551335;-76
2020/12/23 04:19:21;;;;;;;0.20;0.20;;;;;;;12.48;62.98;95441.84;4987727;28;20041;-75
2020/12/23 04:21:46;;;;;;;0.20;0.20;;;;;;;12.65;63.02;95464.38;4989085;28;20050;-74
2020/12/23 04:24:12;;;;;;;0.20;0.20;;;;;;;12.74;62.63;95462.47;4989882;28;20037;-76
2020/12/23 04:26:37;;;;;;;0.20;0.20;;;;;;;12.65;62.33;95435.00;4990067;28;20038;-74
2020/12/23 04:29:02;;;;;;;1.48;0.55;;;;;;;12.60;62.66;95437.81;4991463;28;20026;-76
2020/12/23 04:31:28;;;;;;;0.20;0.17;;;;;;;12.37;62.85;95395.19;4970411;28;20062;-74
2020/12/23 04:33:53;;;;;;;0.85;0.30;;;;;;;12.73;62.79;95444.91;4970555;28;20066;-74
2020/12/23 04:36:18;;;;;;;0.75;0.20;;;;;;;12.67;62.60;95438.13;4970726;28;20031;-74
2020/12/23 04:38:43;;;;;;;0.17;0.10;;;;;;;12.35;63.32;95433.94;4969177;28;20503;-75
2020/12/23 04:41:09;;;;;;;0.28;0.28;;;;;;;12.38;63.43;95447.44;4972328;28;20027;-75
2020/12/23 04:43:34;;;;;;;0.22;0.22;;;;;;;12.42;63.16;95424.41;4988428;28;20034;-75
2020/12/23 04:46:01;;;;;;;0.17;0.17;;;;;;;12.46;62.64;95424.56;4975504;28;20097;-77
2020/12/23 04:48:31;;;;;;;0.20;0.20;;;;;;;12.51;62.96;95418.31;4980011;28;20034;-74
2020/12/23 04:50:57;;;;;;;0.20;0.20;;;;;;;12.61;62.56;95428.72;4989777;28;20035;-75
2020/12/23 04:53:23;;;;;;;0.22;0.22;;;;;;;12.65;62.18;95419.78;4988329;28;20033;-74
2020/12/23 04:55:49;;;;;;;0.20;0.20;;;;;;;12.61;62.33;95418.81;4972100;28;20046;-77
2020/12/23 04:58:15;;;;;;;0.40;0.20;;;;;;;12.68;62.65;95421.81;4970049;28;20054;-74
2020/12/23 05:00:40;;;;;;;0.38;0.30;;;;;;;12.73;62.09;95426.22;4969370;28;20117;-75
2020/12/23 05:03:06;;;;;;;0.30;0.30;;;;;;;12.64;61.86;95404.06;4977319;28;20042;-75
2020/12/23 05:05:31;;;;;;;0.20;0.20;;;;;;;12.77;61.85;95416.50;4989639;28;20582;-74
2020/12/23 05:07:58;;;;;;;0.10;0.10;;;;;;;12.83;61.65;95425.94;4991419;28;20044;-75
2020/12/23 05:10:27;;;;;;;0.20;0.20;;;;;;;12.92;61.40;95405.38;4971951;28;20031;-74
2020/12/23 05:12:53;;;;;;;0.28;0.20;;;;;;;13.00;61.07;95411.84;4980637;28;20101;-77
2020/12/23 05:15:19;;;;;;;0.60;0.20;;;;;;;12.86;61.21;95403.97;4981016;28;20125;-74
2020/12/23 05:17:45;;;;;;;3.88;0.60;;;;;;;13.04;61.18;95412.00;4974406;28;20051;-75
2020/12/23 05:20:11;;;;;;;0.28;0.20;;;;;;;13.01;60.69;95406.19;4991461;28;20030;-76
2020/12/23 05:22:37;;;;;;;0.20;0.20;;;;;;;12.97;60.96;95407.91;4989514;28;20077;-76
2020/12/23 05:25:03;;;;;;;0.95;0.20;;;;;;;13.05;61.24;95406.34;4989450;28;20093;-74
2020/12/23 05:27:32;;;;;;;0.25;0.25;;;;;;;12.62;61.29;95403.59;4989495;28;20031;-74
2020/12/23 05:29:59;;;;;;;1.48;0.28;;;;;;;12.76;61.57;95420.28;4988980;28;20403;-74
2020/12/23 05:32:25;;;;;;;0.35;0.20;;;;;;;12.95;60.83;95407.44;4986531;28;20085;-74
2020/12/23 05:34:51;;;;;;;0.28;0.28;;;;;;;13.18;60.43;95417.97;4991161;28;20022;-76
2020/12/23 05:37:19;;;;;;;0.20;0.20;;;;;;;13.09;60.30;95396.59;4989032;28;20057;-75
2020/12/23 05:39:44;;;;;;;0.35;0.32;;;;;;;13.20;60.24;95389.84;4988045;28;20034;-74
2020/12/23 05:42:09;;;;;;;0.43;0.20;;;;;;;13.31;60.03;95406.41;4988948;28;20040;-75
2020/12/23 05:44:36;;;;;;;0.40;0.30;;;;;;;13.07;59.97;95409.50;4988918;28;20117;-74
2020/12/23 05:47:01;;;;;;;0.30;0.20;;;;;;;13.09;59.87;95391.25;4989707;28;20053;-74
2020/12/23 05:49:27;;;;;;;0.40;0.30;;;;;;;13.33;59.59;95406.88;4988913;28;20088;-75
2020/12/23 05:51:53;;;;;;;0.20;0.20;;;;;;;13.27;59.42;95406.25;4988974;28;20050;-74
2020/12/23 05:54:20;;;;;;;1.08;0.20;;;;;;;13.27;59.52;95397.44;4987669;28;20451;-76
2020/12/23 05:56:50;;;;;;;0.20;0.20;;;;;;;13.25;59.16;95415.66;4989162;28;20120;-75
2020/12/23 05:59:15;;;;;;;0.28;0.10;;;;;;;13.09;59.63;95401.94;4988567;28;20026;-74
2020/12/23 06:01:40;;;;;;;0.40;0.30;;;;;;;13.19;59.66;95406.97;4990888;28;20041;-75
2020/12/23 06:04:14;;;;;;;0.63;0.25;;;;;;;13.31;59.39;95398.38;4973706;28;20106;-76
2020/12/23 06:06:42;;;;;;;0.40;0.20;;;;;;;13.26;59.39;95394.00;4980647;28;20030;-75
2020/12/23 06:09:11;;;;;;;1.00;0.30;;;;;;;13.15;59.02;95368.63;4988382;28;20726;-74
2020/12/23 06:11:47;;;;;;;0.30;0.20;;;;;;;13.39;58.71;95386.91;4986065;28;20129;-74
2020/12/23 06:14:23;;;;;;;0.43;0.30;;;;;;;13.29;59.10;95395.22;4973244;28;20616;-75
2020/12/23 06:17:03;;;;;;;0.68;0.30;;;;;;;13.34;58.82;95400.41;4994213;28;20468;-75
2020/12/23 06:19:40;;;;;;;0.28;0.20;;;;;;;13.33;58.72;95406.09;4974376;28;20038;-73
2020/12/23 06:22:09;;;;;;;0.30;0.20;;;;;;;13.24;58.82;95409.53;4987691;28;20034;-74
2020/12/23 06:24:36;;;;;;;0.20;0.20;;;;;;;13.11;58.83;95410.44;4992282;28;20134;-75
2020/12/23 06:27:06;;;;;;;0.20;0.10;;;;;;;13.09;58.99;95385.13;4992481;28;20040;-75
2020/12/23 06:29:34;;;;;;;0.98;0.50;;;;;;;13.39;58.50;95396.81;4989547;28;20026;-74
2020/12/23 06:32:03;;;;;;;0.75;0.30;;;;;;;13.38;58.33;95374.66;4974431;28;20034;-76
2020/12/23 06:34:31;;;;;;;0.25;0.20;;;;;;;13.42;57.91;95407.66;4989431;28;20400;-75
2020/12/23 06:36:58;;;;;;;0.35;0.25;;;;;;;13.08;58.59;95405.72;4992075;28;20097;-74
2020/12/23 06:39:31;;;;;;;0.30;0.20;;;;;;;13.35;58.29;95399.31;4990374;28;20049;-75
2020/12/23 06:41:59;;;;;;;1.30;0.65;;;;;;;13.43;58.18;95414.56;4990644;28;20034;-75
2020/12/23 06:44:45;;;;;;;0.55;0.20;;;;;;;13.42;57.67;95396.19;4990464;28;20365;-85
2020/12/23 06:47:28;;;;;;;0.40;0.28;;;;;;;13.44;57.49;95397.44;4974259;28;20029;-75
2020/12/23 06:50:03;;;;;;;0.77;0.30;;;;;;;13.63;57.46;95409.69;4972699;28;20047;-76
2020/12/23 06:52:30;;;;;;;0.60;0.30;;;;;;;13.64;57.53;95412.03;4974419;28;20043;-69
2020/12/23 06:55:03;;;;;;;0.65;0.30;;;;;;;13.71;57.40;95401.63;4972033;28;20094;-71
2020/12/23 06:57:34;;;;;;;0.40;0.40;;;;;;;13.72;57.09;95403.22;4971548;28;20062;-73
2020/12/23 07:00:00;;;;;;;0.47;0.40;;;;;;;13.65;57.19;95394.88;4971612;28;20046;-73
2020/12/23 07:02:27;;;;;;;0.43;0.32;;;;;;;13.64;57.09;95404.03;4972143;28;20089;-69
2020/12/23 07:04:54;;;;;;;0.95;0.50;;;;;;;13.56;56.96;95398.66;4967094;28;20031;-78
2020/12/23 07:07:44;;;;;;;0.55;0.50;;;;;;;13.72;56.96;95410.47;4970560;28;20047;-72
2020/12/23 07:10:21;;;;;;;0.47;0.47;;;;;;;13.62;56.67;95400.09;4971857;28;20047;-73
2020/12/23 07:13:05;;;;;;;0.40;0.40;;;;;;;13.61;56.77;95401.19;4972385;28;20039;-76
2020/12/23 07:15:33;;;;;;;0.30;0.30;;;;;;;13.17;57.42;95382.47;4971533;28;20404;-68
2020/12/23 07:18:10;;;;;;;0.20;0.20;;;;;;;13.61;57.03;95411.88;4972708;28;20155;-73
2020/12/23 07:20:45;;;;;;;0.82;0.40;;;;;;;13.58;56.76;95388.47;4971201;28;20034;-69
2020/12/23 07:23:12;;;;;;;1.10;0.30;;;;;;;13.19;57.60;95408.88;4973413;28;20023;-72
2020/12/23 07:25:47;;;;;;;0.28;0.20;;;;;;;13.50;57.33;95404.19;4972735;28;20046;-68
2020/12/23 07:28:15;;;;;;;0.30;0.30;;;;;;;13.58;57.23;95386.56;4970095;28;20031;-72
2020/12/23 07:30:41;;;;;;;0.38;0.35;;;;;;;13.32;56.64;95346.53;4971614;28;20447;-71
2020/12/23 07:33:09;;;;;;;0.45;0.40;;;;;;;13.77;56.61;95411.09;4972438;28;20501;-78
2020/12/23 07:35:36;;;;;;;0.52;0.35;;;;;;;13.89;56.60;95401.63;4972606;28;20039;-77
2020/12/23 07:38:03;;;;;;;0.38;0.38;;;;;;;13.65;55.84;95364.69;4974959;28;20030;-77
2020/12/23 07:40:30;;;;;;;0.50;0.20;;;;;;;13.66;56.27;95371.63;4977695;28;20046;-74
2020/12/23 07:42:56;;;;;;;0.80;0.30;;;;;;;13.75;56.27;95359.03;4970360;28;20409;-75
2020/12/23 07:45:23;;;;;;;0.63;0.50;;;;;;;14.14;55.83;95397.31;4971485;28;20039;-74
2020/12/23 07:48:06;;;;;;;0.40;0.40;;;;;;;13.97;55.39;95372.19;4972363;28;20039;-68
2020/12/23 07:50:35;;;;;;;0.40;0.35;;;;;;;14.02;55.52;95371.22;4972066;28;20022;-76
2020/12/23 07:53:16;;;;;;;0.63;0.32;;;;;;;14.18;55.56;95376.84;4973493;28;20088;-70
2020/12/23 07:55:44;;;;;;;0.35;0.20;;;;;;;14.15;55.58;95375.59;4970215;28;20142;-71
2020/12/23 07:58:10;;;;;;;0.60;0.40;;;;;;;14.35;55.23;95403.53;4971675;28;20042;-70
2020/12/23 08:00:37;;;;;;;0.40;0.30;;;;;;;14.39;55.32;95409.03;4968920;28;20039;-74
2020/12/23 08:03:07;;;;;;;0.55;0.20;;;;;;;14.38;55.20;95408.22;4971535;28;20432;-75
2020/12/23 08:05:33;;;;;;;0.30;0.30;;;;;;;14.30;54.74;95404.47;4970315;28;20038;-73
2020/12/23 08:07:58;;;;;;;1.30;0.45;;;;;;;14.37;55.12;95406.66;4973607;28;20057;-77
2020/12/23 08:10:24;;;;;;;2.03;0.40;;;;;;;14.16;54.68;95387.06;4971988;28;20035;-78
2020/12/23 08:13:05;;;;;;;0.75;0.63;;;;;;;14.41;54.83;95407.59;4971897;28;20043;-78
2020/12/23 08:15:31;;;;;;;0.40;0.30;;;;;;;14.43;54.63;95409.94;4971369;28;20101;-80
2020/12/23 08:18:10;;;;;;;0.68;0.60;;;;;;;13.91;54.52;95316.50;4970341;28;20038;-73
2020/12/23 08:20:36;;;;;;;0.35;0.30;;;;;;;14.57;54.62;95405.97;4971173;28;20034;-78
2020/12/23 08:23:02;;;;;;;0.30;0.30;;;;;;;14.37;54.02;95377.22;4973831;28;20027;-77
2020/12/23 08:25:29;;;;;;;0.70;0.38;;;;;;;14.67;53.87;95418.22;4972429;28;20041;-78
2020/12/23 08:28:00;;;;;;;0.52;0.30;;;;;;;14.66;54.15;95391.75;4971960;28;20081;-77
2020/12/23 08:30:28;;;;;;;0.20;0.20;;;;;;;14.78;53.75;95410.59;4972545;28;20035;-81
2020/12/23 08:33:06;;;;;;;0.40;0.30;;;;;;;14.72;53.69;95406.53;4972551;28;20074;-85
2020/12/23 08:35:37;;;;;;;0.30;0.30;;;;;;;14.78;53.33;95405.22;4971904;28;20555;-78
2020/12/23 08:38:04;;;;;;;0.37;0.33;;;;;;;14.78;53.43;95399.88;4972439;28;20027;-77
2020/12/23 08:40:30;;;;;;;0.45;0.30;;;;;;;14.83;53.75;95403.16;4970193;28;20322;-67
2020/12/23 08:42:59;;;;;;;0.60;0.57;;;;;;;14.74;54.10;95389.06;4970327;28;20034;-79
2020/12/23 08:45:27;;;;;;;0.63;0.60;;;;;;;14.83;53.32;95405.06;4971881;28;20389;-78
2020/12/23 08:47:53;;;;;;;0.80;0.70;;;;;;;14.73;53.33;95403.53;4971804;28;20034;-77
2020/12/23 08:50:21;;;;;;;1.00;0.68;;;;;;;14.86;53.53;95401.72;4971644;28;20093;-79
2020/12/23 08:52:48;;;;;;;0.45;0.45;;;;;;;14.83;53.10;95394.34;4972405;28;20081;-78
2020/12/23 08:55:18;;;;;;;0.30;0.30;;;;;;;14.79;53.66;95380.84;4971970;28;20081;-81
2020/12/23 08:57:45;;;;;;;1.48;0.90;;;;;;;14.98;53.31;95399.13;4971574;28;20062;-78
2020/12/23 09:00:18;;;;;;;0.50;0.50;;;;;;;15.01;53.32;95397.72;4970380;28;20070;-80
2020/12/23 09:02:45;;;;;;;1.27;0.68;;;;;;;15.02;53.31;95386.66;4971802;28;20031;-80
2020/12/23 09:05:28;;;;;;;0.52;0.50;;;;;;;15.03;52.68;95390.13;4972880;28;20359;-79
2020/12/23 09:08:03;;;;;;;0.38;0.38;;;;;;;15.18;52.90;95394.91;5003491;28;20039;-80
2020/12/23 09:10:29;;;;;;;0.30;0.30;;;;;;;15.21;52.36;95386.22;4971453;28;20078;-80
2020/12/23 09:13:14;;;;;;;0.70;0.50;;;;;;;14.97;52.13;95378.81;4971454;28;20069;-78
2020/12/23 09:15:40;;;;;;;0.40;0.30;;;;;;;15.09;52.51;95378.88;4971840;28;20773;-79
2020/12/23 09:18:14;;;;;;;0.40;0.40;;;;;;;15.19;52.24;95384.97;4971563;28;20047;-80
2020/12/23 09:20:40;;;;;;;0.30;0.30;;;;;;;15.26;51.94;95383.34;4970322;28;20035;-80
2020/12/23 09:23:10;;;;;;;0.57;0.38;;;;;;;15.43;52.17;95385.09;4973485;28;20110;-79
2020/12/23 09:25:38;;;;;;;0.43;0.40;;;;;;;15.44;51.62;95388.56;4971632;28;20038;-77
2020/12/23 09:28:09;;;;;;;0.47;0.47;;;;;;;15.55;51.23;95374.41;4971117;28;20419;-77
2020/12/23 09:30:37;;;;;;;0.32;0.32;;;;;;;15.53;51.39;95376.66;4971266;28;20042;-79
2020/12/23 09:33:04;;;;;;;1.27;0.30;;;;;;;15.51;51.10;95370.06;4970933;28;20038;-79
2020/12/23 09:35:30;;;;;;;1.55;0.40;;;;;;;15.54;50.90;95369.38;4971516;28;20058;-79
2020/12/23 09:38:30;;;;;;;0.47;0.47;;;;;;;15.55;50.29;95381.66;4973726;28;20077;-79
2020/12/23 09:40:58;;;;;;;1.48;0.32;;;;;;;15.66;50.92;95382.06;4971937;28;20039;-76
2020/12/23 09:43:29;;;;;;;0.50;0.50;;;;;;;15.28;50.46;95342.81;4971529;28;20074;-80
2020/12/23 09:45:57;;;;;;;0.50;0.40;;;;;;;15.22;51.21;95381.63;4971810;28;20560;-80
2020/12/23 09:48:24;;;;;;;0.40;0.40;;;;;;;15.03;51.65;95377.50;4974530;28;20034;-79
2020/12/23 09:50:54;;;;;;;0.43;0.30;;;;;;;14.68;52.34;95373.47;4975115;28;20400;-79
2020/12/23 09:53:24;;;;;;;0.40;0.40;;;;;;;14.43;54.05;95389.31;4974731;28;20027;-80
2020/12/23 09:55:49;;;;;;;0.90;0.50;;;;;;;14.21;54.82;95386.88;4976596;28;20507;-73
2020/12/23 09:58:16;;;;;;;1.52;0.60;;;;;;;14.51;54.88;95345.69;4974192;28;20027;-78
2020/12/23 10:00:42;;;;;;;1.35;0.70;;;;;;;14.85;56.46;95343.16;4974736;28;20061;-77
2020/12/23 10:03:09;;;;;;;0.50;0.43;;;;;;;14.67;56.72;95329.84;4974216;28;20031;-78
2020/12/23 10:05:35;;;;;;;0.65;0.65;;;;;;;14.85;57.35;95338.56;4974086;28;20035;-80
2020/12/23 10:08:01;;;;;;;0.52;0.50;;;;;;;14.76;57.89;95333.28;4975135;28;20077;-73
2020/12/23 10:10:27;;;;;;;0.98;0.60;;;;;;;14.65;57.74;95288.47;4973760;28;20126;-82
2020/12/23 10:12:53;;;;;;;0.80;0.40;;;;;;;14.97;57.51;95303.81;4972594;28;20190;-77
2020/12/23 10:15:18;;;;;;;1.48;0.70;;;;;;;15.16;57.23;95326.69;4973836;28;20089;-69
2020/12/23 10:17:43;;;;;;;1.80;0.52;;;;;;;15.32;57.57;95314.25;4973836;28;20049;-76
2020/12/23 10:20:09;;;;;;;1.60;0.60;;;;;;;15.40;57.12;95307.22;4974231;28;20051;-73
2020/12/23 10:22:35;;;;;;;1.17;0.40;;;;;;;15.56;56.95;95300.94;4971960;28;20500;-75
2020/12/23 10:25:01;;;;;;;1.60;0.63;;;;;;;15.65;56.87;95324.97;4973284;28;20046;-75
2020/12/23 10:27:27;;;;;;;0.93;0.70;;;;;;;15.44;56.43;95297.41;4971908;28;20039;-74
2020/12/23 10:29:52;;;;;;;0.60;0.60;;;;;;;15.41;56.71;95292.72;4969715;28;20034;-75
2020/12/23 10:32:19;;;;;;;1.55;0.70;;;;;;;15.20;56.30;95234.59;4970296;28;20498;-77
2020/12/23 10:34:46;;;;;;;1.52;1.05;;;;;;;15.81;56.78;95309.81;4974277;28;20023;-76
2020/12/23 10:37:12;;;;;;;1.55;0.60;;;;;;;15.79;56.41;95290.59;4972992;28;20055;-75
2020/12/23 10:39:37;;;;;;;4.35;0.80;;;;;;;15.39;56.59;95234.06;4971326;28;20174;-75
2020/12/23 10:42:02;;;;;;;2.10;1.55;;;;;;;15.80;56.54;95269.91;4970329;28;20459;-76
2020/12/23 10:44:28;;;;;;;2.00;1.55;;;;;;;15.44;56.32;95192.88;4973055;28;20023;-75
2020/12/23 10:46:57;;;;;;;2.97;1.15;;;;;;;15.59;55.98;95214.44;4974071;28;20026;-74
2020/12/23 10:49:23;;;;;;;2.75;1.50;;;;;;;15.30;55.88;95161.81;4972876;28;20039;-74
2020/12/23 10:51:58;;;;;;;1.15;0.95;;;;;;;15.96;55.96;95245.91;4972859;28;20035;-70
2020/12/23 10:54:30;;;;;;;2.58;1.40;;;;;;;15.94;55.90;95237.41;4973283;28;20660;-74
2020/12/23 10:56:56;;;;;;;1.35;1.25;;;;;;;16.26;55.74;95295.56;4971556;28;20038;-75
2020/12/23 10:59:22;;;;;;;2.75;1.30;;;;;;;16.06;55.49;95246.25;4971127;28;20023;-75
2020/12/23 11:01:57;;;;;;;2.20;1.10;;;;;;;16.09;54.94;95250.16;4974867;28;20085;-75
2020/12/23 11:04:23;;;;;;;1.95;1.70;;;;;;;16.05;55.14;95241.22;4972340;28;20469;-74
2020/12/23 11:06:52;;;;;;;1.58;1.00;;;;;;;16.02;55.02;95242.69;4972509;28;20143;-75
2020/12/23 11:09:18;;;;;;;1.40;1.25;;;;;;;16.18;54.80;95268.84;4970978;28;20046;-75
2020/12/23 11:11:53;;;;;;;1.27;1.20;;;;;;;16.13;55.02;95264.47;4972647;28;20050;-74
2020/12/23 11:14:19;;;;;;;1.25;1.15;;;;;;;16.00;55.29;95266.38;4972769;28;20508;-74
2020/12/23 11:16:49;;;;;;;1.20;1.00;;;;;;;15.84;55.33;95227.91;4974751;28;20105;-74
2020/12/23 11:19:14;;;;;;;3.22;1.23;;;;;;;15.81;55.15;95231.25;4972408;28;20043;-73
2020/12/23 11:21:40;;;;;;;1.40;1.30;;;;;;;16.15;55.21;95262.22;4972308;28;20046;-73
2020/12/23 11:24:05;;;;;;;3.10;1.25;;;;;;;15.91;54.97;95230.03;4972294;28;20043;-80
2020/12/23 11:26:30;;;;;;;1.30;1.20;;;;;;;16.19;55.25;95260.44;4970216;28;20063;-76
2020/12/23 11:28:56;;;;;;;1.00;0.90;;;;;;;16.03;54.42;95216.63;4973819;28;20106;-74
2020/12/23 11:31:21;;;;;;;1.40;1.25;;;;;;;15.96;53.90;95200.28;4972263;28;20404;-75
2020/12/23 11:33:46;;;;;;;2.90;1.40;;;;;;;16.39;53.70;95250.69;4970999;28;20413;-75
2020/12/23 11:36:14;;;;;;;2.58;1.10;;;;;;;16.33;53.26;95199.16;4962994;28;20031;-74